Time;durP1;ratioP1;P1;durP2;ratioP2;P2;SDS_P1;SDS_P2;PMS_P1;PMS_P2;Temp;Humidity;BMP_temperature;BMP_pressure;BME280_temperature;BME280_humidity;BME280_pressure;Samples;Min_cycle;Max_cycle;Signal;HPM_P1;HPM_P2
2023/12/25 00:01:10;;;;;;;3.67;1.43;;;;;;;;;;4945960;28;20218;-86
2023/12/25 00:03:38;;;;;;;4.60;1.83;;;;;;;;;;4959963;28;20265;-83
2023/12/25 00:06:04;;;;;;;3.93;1.80;;;;;;;;;;4962166;28;20210;-84
2023/12/25 00:08:30;;;;;;;4.20;1.50;;;;;;;;;;4951936;28;20227;-85
2023/12/25 00:10:58;;;;;;;3.67;1.60;;;;;;;;;;4960406;28;20218;-85
2023/12/25 00:13:24;;;;;;;3.77;1.67;;;;;;;;;;4956727;28;20498;-84
2023/12/25 00:15:50;;;;;;;5.50;2.00;;;;;;;;;;4965343;28;20229;-87
2023/12/25 00:18:18;;;;;;;5.43;1.60;;;;;;;;;;4958650;28;20682;-86
2023/12/25 00:20:48;;;;;;;2.63;1.60;;;;;;;;;;4954711;28;20226;-87
2023/12/25 00:23:18;;;;;;;4.87;1.90;;;;;;;;;;4961968;28;20234;-87
2023/12/25 00:25:44;;;;;;;3.47;1.70;;;;;;;;;;4973311;28;20226;-88
2023/12/25 00:28:09;;;;;;;5.07;1.90;;;;;;;;;;4958601;28;20275;-84
2023/12/25 00:30:35;;;;;;;3.80;1.63;;;;;;;;;;4943301;28;20238;-83
2023/12/25 00:33:01;;;;;;;3.03;1.40;;;;;;;;;;4959438;28;20218;-87
2023/12/25 00:35:29;;;;;;;3.87;1.80;;;;;;;;;;4953599;28;20247;-84
2023/12/25 00:37:56;;;;;;;4.80;1.77;;;;;;;;;;4961910;28;20252;-86
2023/12/25 00:40:22;;;;;;;6.30;1.70;;;;;;;;;;4921039;28;20214;-85
2023/12/25 00:42:48;;;;;;;5.77;1.50;;;;;;;;;;4967023;28;20325;-82
2023/12/25 00:45:13;;;;;;;2.67;1.23;;;;;;;;;;4977539;28;20246;-88
2023/12/25 00:47:41;;;;;;;3.60;1.50;;;;;;;;;;4954786;28;20236;-87
2023/12/25 00:50:09;;;;;;;4.17;1.53;;;;;;;;;;4973122;28;20300;-86
2023/12/25 00:52:35;;;;;;;4.00;1.37;;;;;;;;;;4958817;28;20255;-85
2023/12/25 00:55:00;;;;;;;4.97;1.50;;;;;;;;;;4973500;28;20715;-84
2023/12/25 00:57:29;;;;;;;7.00;1.77;;;;;;;;;;4961522;28;20222;-84
2023/12/25 01:00:02;;;;;;;3.90;1.50;;;;;;;;;;4952936;28;20771;-81
2023/12/25 01:02:27;;;;;;;4.60;1.53;;;;;;;;;;4978663;28;20228;-83
2023/12/25 01:04:53;;;;;;;2.50;1.30;;;;;;;;;;4963867;28;20647;-82
2023/12/25 01:07:20;;;;;;;5.30;1.40;;;;;;;;;;4948833;28;20203;-82
2023/12/25 01:09:48;;;;;;;4.70;1.43;;;;;;;;;;4971083;28;20230;-86
2023/12/25 01:12:18;;;;;;;4.87;1.70;;;;;;;;;;4968654;28;20722;-81
2023/12/25 01:14:46;;;;;;;6.30;1.90;;;;;;;;;;4954346;28;20234;-82
2023/12/25 01:17:14;;;;;;;3.63;1.40;;;;;;;;;;4956938;28;20557;-83
2023/12/25 01:19:41;;;;;;;5.23;1.67;;;;;;;;;;4983567;28;20234;-82
2023/12/25 01:22:10;;;;;;;5.73;1.77;;;;;;;;;;4968714;28;20254;-83
2023/12/25 01:24:37;;;;;;;5.73;1.90;;;;;;;;;;4985638;28;20265;-84
2023/12/25 01:27:05;;;;;;;3.73;1.63;;;;;;;;;;4970390;28;20214;-83
2023/12/25 01:29:33;;;;;;;3.13;1.57;;;;;;;;;;4985211;28;20225;-86
2023/12/25 01:32:01;;;;;;;4.33;1.93;;;;;;;;;;4958500;28;20225;-85
2023/12/25 01:34:26;;;;;;;5.50;2.20;;;;;;;;;;4961075;28;20257;-84
2023/12/25 01:36:54;;;;;;;5.27;2.00;;;;;;;;;;4943114;28;20226;-85
2023/12/25 01:39:21;;;;;;;6.47;1.90;;;;;;;;;;4939451;28;20219;-84
2023/12/25 01:41:46;;;;;;;4.00;1.83;;;;;;;;;;4959700;28;20699;-82
2023/12/25 01:44:14;;;;;;;5.77;2.10;;;;;;;;;;4934722;28;20229;-82
2023/12/25 01:46:42;;;;;;;4.77;1.70;;;;;;;;;;4964884;28;20274;-86
2023/12/25 01:49:07;;;;;;;4.10;1.73;;;;;;;;;;4958046;28;20222;-83
2023/12/25 01:51:34;;;;;;;3.40;1.60;;;;;;;;;;4960002;28;20237;-84
2023/12/25 01:54:02;;;;;;;2.93;1.37;;;;;;;;;;4959122;28;20238;-85
2023/12/25 01:56:29;;;;;;;3.97;1.90;;;;;;;;;;4962662;28;20221;-85
2023/12/25 01:58:55;;;;;;;5.40;1.70;;;;;;;;;;4953990;28;20227;-86
2023/12/25 02:01:20;;;;;;;3.83;1.50;;;;;;;;;;4959048;28;20838;-84
2023/12/25 02:03:49;;;;;;;5.03;1.80;;;;;;;;;;4950907;28;20218;-86
2023/12/25 02:06:19;;;;;;;7.50;1.73;;;;;;;;;;4974545;28;20249;-84
2023/12/25 02:08:45;;;;;;;7.37;1.60;;;;;;;;;;4966634;28;20227;-84
2023/12/25 02:11:10;;;;;;;6.00;1.93;;;;;;;;;;4963870;28;20249;-83
2023/12/25 02:13:36;;;;;;;2.80;1.40;;;;;;;;;;4963030;28;20230;-82
2023/12/25 02:16:03;;;;;;;3.70;1.33;;;;;;;;;;4943102;28;20249;-84
2023/12/25 02:18:31;;;;;;;2.07;1.27;;;;;;;;;;4954954;28;20247;-84
2023/12/25 02:20:57;;;;;;;4.27;1.43;;;;;;;;;;4950970;28;20321;-83
2023/12/25 02:23:22;;;;;;;2.70;1.23;;;;;;;;;;4959257;28;20239;-86
2023/12/25 02:25:57;;;;;;;3.77;1.33;;;;;;;;;;4956271;28;20231;-85
2023/12/25 02:28:23;;;;;;;2.67;0.87;;;;;;;;;;4962589;28;21007;-84
2023/12/25 02:30:53;;;;;;;4.53;1.50;;;;;;;;;;4952397;28;20787;-87
2023/12/25 02:33:19;;;;;;;3.50;1.80;;;;;;;;;;4930483;28;20225;-84
2023/12/25 02:35:44;;;;;;;2.70;1.30;;;;;;;;;;4954034;28;20229;-85
2023/12/25 02:38:10;;;;;;;2.40;1.30;;;;;;;;;;4964791;28;20309;-84
2023/12/25 02:40:39;;;;;;;4.83;1.50;;;;;;;;;;4956394;28;20929;-82
2023/12/25 02:43:09;;;;;;;4.03;1.53;;;;;;;;;;4967272;28;20227;-86
2023/12/25 02:45:37;;;;;;;5.40;1.63;;;;;;;;;;4954122;28;20299;-83
2023/12/25 02:48:05;;;;;;;4.23;1.33;;;;;;;;;;4965663;28;20215;-85
2023/12/25 02:50:30;;;;;;;2.90;1.30;;;;;;;;;;4962155;28;20229;-84
2023/12/25 02:52:56;;;;;;;4.10;1.73;;;;;;;;;;4941537;28;20293;-82
2023/12/25 02:55:25;;;;;;;5.53;1.63;;;;;;;;;;4972736;28;20280;-83
2023/12/25 02:57:53;;;;;;;4.63;2.03;;;;;;;;;;4959796;28;20303;-89
2023/12/25 03:00:21;;;;;;;4.53;1.50;;;;;;;;;;4950899;28;20225;-82
2023/12/25 03:02:49;;;;;;;11.23;2.37;;;;;;;;;;4957334;28;20825;-84
2023/12/25 03:05:17;;;;;;;5.93;2.00;;;;;;;;;;4938304;28;20306;-86
2023/12/25 03:07:44;;;;;;;5.40;2.00;;;;;;;;;;4958949;28;20225;-86
2023/12/25 03:10:12;;;;;;;3.93;1.93;;;;;;;;;;4952776;28;20518;-85
2023/12/25 03:12:38;;;;;;;6.83;1.93;;;;;;;;;;4935360;28;20239;-85
2023/12/25 03:15:04;;;;;;;10.43;2.43;;;;;;;;;;4969810;28;20269;-83
2023/12/25 03:17:30;;;;;;;4.57;1.90;;;;;;;;;;4953197;28;20230;-84
2023/12/25 03:19:55;;;;;;;4.47;2.03;;;;;;;;;;4957767;28;20770;-84
2023/12/25 03:22:26;;;;;;;4.07;1.83;;;;;;;;;;4933092;28;20233;-85
2023/12/25 03:24:54;;;;;;;9.70;2.37;;;;;;;;;;4956914;28;20296;-85
2023/12/25 03:27:19;;;;;;;5.70;2.00;;;;;;;;;;4955917;28;20284;-84
2023/12/25 03:29:47;;;;;;;9.47;2.20;;;;;;;;;;4954467;28;20230;-85
2023/12/25 03:32:13;;;;;;;3.47;1.60;;;;;;;;;;4954817;28;20726;-81
2023/12/25 03:34:48;;;;;;;3.33;1.60;;;;;;;;;;4959241;28;20233;-83
2023/12/25 03:37:17;;;;;;;4.97;1.90;;;;;;;;;;4968186;28;20234;-84
2023/12/25 03:39:42;;;;;;;4.73;2.00;;;;;;;;;;4966703;28;20221;-84
2023/12/25 03:42:08;;;;;;;4.53;1.97;;;;;;;;;;4950453;28;20236;-85
2023/12/25 03:44:33;;;;;;;3.80;1.60;;;;;;;;;;4951865;28;20232;-84
2023/12/25 03:47:04;;;;;;;6.43;1.80;;;;;;;;;;4941024;28;20222;-84
2023/12/25 03:49:32;;;;;;;3.23;1.40;;;;;;;;;;4942103;28;20226;-84
2023/12/25 03:51:57;;;;;;;5.67;1.83;;;;;;;;;;4953516;28;20237;-84
2023/12/25 03:54:25;;;;;;;4.33;1.77;;;;;;;;;;4965738;28;20238;-82
2023/12/25 03:56:53;;;;;;;5.80;1.67;;;;;;;;;;4955970;28;20262;-84
2023/12/25 04:03:06;;;;;;;5.60;1.60;;;;;;;;;;4973111;28;20256;-84
2023/12/25 04:05:33;;;;;;;4.53;1.60;;;;;;;;;;4951539;28;20242;-86
2023/12/25 04:08:01;;;;;;;4.10;1.40;;;;;;;;;;4961770;28;20230;-83
2023/12/25 04:10:26;;;;;;;4.70;1.70;;;;;;;;;;4945877;28;20696;-85
2023/12/25 04:12:52;;;;;;;5.63;1.70;;;;;;;;;;4939782;28;20234;-85
2023/12/25 04:15:17;;;;;;;7.73;1.80;;;;;;;;;;4952197;28;20230;-85
2023/12/25 04:17:43;;;;;;;8.67;2.00;;;;;;;;;;4952405;28;20784;-84
2023/12/25 04:20:11;;;;;;;5.70;2.00;;;;;;;;;;4950324;28;20223;-84
2023/12/25 04:22:39;;;;;;;4.37;1.67;;;;;;;;;;4949817;28;20706;-84
2023/12/25 04:25:07;;;;;;;7.37;1.87;;;;;;;;;;4954243;28;20290;-87
2023/12/25 04:27:33;;;;;;;7.20;2.20;;;;;;;;;;4940042;28;20233;-87
2023/12/25 04:29:59;;;;;;;5.37;1.90;;;;;;;;;;4957175;28;20226;-85
2023/12/25 04:32:26;;;;;;;6.80;1.90;;;;;;;;;;4973190;28;20229;-87
2023/12/25 04:34:52;;;;;;;7.83;1.93;;;;;;;;;;4963121;28;20242;-85
2023/12/25 04:37:20;;;;;;;3.33;1.67;;;;;;;;;;4965187;28;20222;-82
2023/12/25 04:39:46;;;;;;;8.60;1.53;;;;;;;;;;4956061;28;20218;-87
2023/12/25 04:42:12;;;;;;;7.40;1.90;;;;;;;;;;4937609;28;20221;-87
2023/12/25 04:44:37;;;;;;;4.93;1.67;;;;;;;;;;4958174;28;20226;-83
2023/12/25 04:47:04;;;;;;;5.47;1.97;;;;;;;;;;4947647;28;20226;-83
2023/12/25 04:49:32;;;;;;;3.67;1.63;;;;;;;;;;4971657;28;20297;-83
2023/12/25 04:51:58;;;;;;;2.83;1.40;;;;;;;;;;4939361;28;20265;-88
2023/12/25 04:54:23;;;;;;;5.37;1.57;;;;;;;;;;4957440;28;20304;-84
2023/12/25 04:56:53;;;;;;;6.70;1.60;;;;;;;;;;4963178;28;20226;-85
2023/12/25 04:59:21;;;;;;;5.67;1.93;;;;;;;;;;4967876;28;20245;-86
2023/12/25 05:01:49;;;;;;;7.23;1.47;;;;;;;;;;4962095;28;20226;-84
2023/12/25 05:04:19;;;;;;;3.67;1.63;;;;;;;;;;4973595;28;20261;-83
2023/12/25 05:06:45;;;;;;;4.57;1.50;;;;;;;;;;4945363;28;20281;-86
2023/12/25 05:09:11;;;;;;;3.47;1.43;;;;;;;;;;4961550;28;20215;-87
2023/12/25 05:11:41;;;;;;;6.70;1.77;;;;;;;;;;4961589;28;20703;-82
2023/12/25 05:14:07;;;;;;;3.37;1.27;;;;;;;;;;4955753;28;20227;-85
2023/12/25 05:16:35;;;;;;;3.40;1.27;;;;;;;;;;4952669;28;20622;-86
2023/12/25 05:19:06;;;;;;;4.40;1.40;;;;;;;;;;4958655;28;20247;-85
2023/12/25 05:21:33;;;;;;;3.10;1.60;;;;;;;;;;4954957;28;20229;-84
2023/12/25 05:24:01;;;;;;;7.07;1.40;;;;;;;;;;4973470;28;20215;-81
2023/12/25 05:26:30;;;;;;;5.50;1.60;;;;;;;;;;4989654;28;20210;-82
2023/12/25 05:29:00;;;;;;;4.27;1.57;;;;;;;;;;4970604;28;20222;-82
2023/12/25 05:31:26;;;;;;;3.87;1.27;;;;;;;;;;4973400;28;20233;-82
2023/12/25 05:33:54;;;;;;;3.80;1.43;;;;;;;;;;4954648;28;20242;-80
2023/12/25 05:36:24;;;;;;;7.57;1.23;;;;;;;;;;4970844;28;20258;-83
2023/12/25 05:38:49;;;;;;;6.10;1.60;;;;;;;;;;4938888;28;20273;-86
2023/12/25 05:41:17;;;;;;;2.20;0.97;;;;;;;;;;4954945;28;20265;-85
2023/12/25 05:43:43;;;;;;;4.90;1.23;;;;;;;;;;4959815;28;20680;-84
2023/12/25 05:46:12;;;;;;;4.83;1.60;;;;;;;;;;4965665;28;20237;-85
2023/12/25 05:48:37;;;;;;;3.00;1.20;;;;;;;;;;4952062;28;20215;-83
2023/12/25 05:51:03;;;;;;;3.10;1.07;;;;;;;;;;4972028;28;20214;-82
2023/12/25 05:53:29;;;;;;;3.40;1.10;;;;;;;;;;4972617;28;20222;-88
2023/12/25 05:55:58;;;;;;;2.57;1.13;;;;;;;;;;4958407;28;20226;-84
2023/12/25 05:58:23;;;;;;;3.37;1.40;;;;;;;;;;4957022;28;20305;-84
2023/12/25 06:00:49;;;;;;;4.27;1.17;;;;;;;;;;4977921;28;20225;-85
2023/12/25 06:03:14;;;;;;;5.47;1.70;;;;;;;;;;4960724;28;20227;-84
2023/12/25 06:05:42;;;;;;;4.70;1.20;;;;;;;;;;4940711;28;20246;-84
2023/12/25 06:08:09;;;;;;;2.70;1.23;;;;;;;;;;4974126;28;20222;-83
2023/12/25 06:10:37;;;;;;;3.33;1.20;;;;;;;;;;4947185;28;20269;-84
2023/12/25 06:13:02;;;;;;;5.73;1.53;;;;;;;;;;4955831;28;20229;-83
2023/12/25 06:15:28;;;;;;;4.67;1.60;;;;;;;;;;4957470;28;20429;-84
2023/12/25 06:17:54;;;;;;;4.33;1.50;;;;;;;;;;4970566;28;20268;-84
2023/12/25 06:20:23;;;;;;;7.83;1.70;;;;;;;;;;4952147;28;20233;-86
2023/12/25 06:22:49;;;;;;;5.90;1.60;;;;;;;;;;4941487;28;20217;-87
2023/12/25 06:25:14;;;;;;;5.17;1.57;;;;;;;;;;4958090;28;20593;-85
2023/12/25 06:27:40;;;;;;;7.47;1.80;;;;;;;;;;4943999;28;20248;-83
2023/12/25 06:30:06;;;;;;;3.97;1.30;;;;;;;;;;4971873;28;20244;-84
2023/12/25 06:32:33;;;;;;;6.93;2.00;;;;;;;;;;4954987;28;21758;-81
2023/12/25 06:34:59;;;;;;;7.23;2.00;;;;;;;;;;4988640;28;20254;-81
2023/12/25 06:37:24;;;;;;;4.53;1.70;;;;;;;;;;4963949;28;20226;-83
2023/12/25 06:39:55;;;;;;;5.90;1.83;;;;;;;;;;4969610;28;20243;-80
2023/12/25 06:42:22;;;;;;;5.90;1.63;;;;;;;;;;4977160;28;20211;-83
2023/12/25 06:44:48;;;;;;;6.90;1.97;;;;;;;;;;4957465;28;20227;-85
2023/12/25 06:47:15;;;;;;;4.93;1.53;;;;;;;;;;4966048;28;20779;-84
2023/12/25 06:49:41;;;;;;;6.10;1.80;;;;;;;;;;4938607;28;20218;-82
2023/12/25 06:52:07;;;;;;;5.77;1.83;;;;;;;;;;4936574;28;20221;-83
2023/12/25 06:54:36;;;;;;;4.27;1.67;;;;;;;;;;4972322;28;20239;-83
2023/12/25 06:57:02;;;;;;;3.80;1.50;;;;;;;;;;4942669;28;20226;-84
2023/12/25 06:59:30;;;;;;;4.50;1.63;;;;;;;;;;4948819;28;20293;-83
2023/12/25 07:01:55;;;;;;;6.80;1.40;;;;;;;;;;4963911;28;20286;-81
2023/12/25 07:04:22;;;;;;;5.30;1.70;;;;;;;;;;4961205;28;20215;-84
2023/12/25 07:06:56;;;;;;;4.23;1.80;;;;;;;;;;4957564;28;20219;-84
2023/12/25 07:09:21;;;;;;;7.00;1.70;;;;;;;;;;4951379;28;20250;-84
2023/12/25 07:11:49;;;;;;;5.73;1.87;;;;;;;;;;4965444;28;20603;-86
2023/12/25 07:14:15;;;;;;;4.57;1.80;;;;;;;;;;4955127;28;20244;-85
2023/12/25 07:16:41;;;;;;;6.47;1.70;;;;;;;;;;4955903;28;20226;-85
2023/12/25 07:19:06;;;;;;;6.93;1.87;;;;;;;;;;4944470;28;20691;-86
2023/12/25 07:21:32;;;;;;;5.10;1.97;;;;;;;;;;4924834;28;20226;-86
2023/12/25 07:24:00;;;;;;;8.00;1.63;;;;;;;;;;4933226;28;20260;-84
2023/12/25 07:26:25;;;;;;;2.87;1.50;;;;;;;;;;4945448;28;20223;-83
2023/12/25 07:28:51;;;;;;;7.13;1.70;;;;;;;;;;4955781;28;20245;-86
2023/12/25 07:31:23;;;;;;;4.50;1.47;;;;;;;;;;4942235;28;20836;-83
2023/12/25 07:33:51;;;;;;;5.73;1.50;;;;;;;;;;4957039;28;20226;-82
2023/12/25 07:36:19;;;;;;;5.17;1.70;;;;;;;;;;4944825;28;20240;-85
2023/12/25 07:38:45;;;;;;;3.63;1.50;;;;;;;;;;4954218;28;20680;-84
2023/12/25 07:41:15;;;;;;;4.47;1.53;;;;;;;;;;4929953;28;20219;-83
2023/12/25 07:43:41;;;;;;;6.23;1.90;;;;;;;;;;4944323;28;20230;-82
2023/12/25 07:46:07;;;;;;;3.97;1.53;;;;;;;;;;4983075;28;20232;-85
2023/12/25 07:48:33;;;;;;;4.57;1.80;;;;;;;;;;4954489;28;20230;-85
2023/12/25 07:50:59;;;;;;;6.47;1.90;;;;;;;;;;4933753;29;20226;-85
2023/12/25 07:53:27;;;;;;;5.87;1.87;;;;;;;;;;4931161;28;20241;-83
2023/12/25 07:56:00;;;;;;;7.33;2.00;;;;;;;;;;4939345;28;20218;-82
2023/12/25 07:58:25;;;;;;;4.67;1.80;;;;;;;;;;4957147;28;20218;-84
2023/12/25 08:00:51;;;;;;;4.47;1.50;;;;;;;;;;4933809;29;20684;-84
2023/12/25 08:03:22;;;;;;;6.93;1.70;;;;;;;;;;4960111;28;20223;-85
2023/12/25 08:05:49;;;;;;;4.83;1.77;;;;;;;;;;4971536;28;20621;-85
2023/12/25 08:08:15;;;;;;;4.50;1.70;;;;;;;;;;4941133;28;20210;-86
2023/12/25 08:10:48;;;;;;;6.40;1.60;;;;;;;;;;4944693;28;20241;-87
2023/12/25 08:13:18;;;;;;;4.97;2.00;;;;;;;;;;4958002;28;20214;-87
2023/12/25 08:15:43;;;;;;;3.97;1.43;;;;;;;;;;4964402;28;20229;-83
2023/12/25 08:18:09;;;;;;;5.13;1.87;;;;;;;;;;4961654;28;20227;-84
2023/12/25 08:20:37;;;;;;;4.23;1.97;;;;;;;;;;4960167;28;20356;-82
2023/12/25 08:23:05;;;;;;;7.87;2.07;;;;;;;;;;4960489;28;20337;-85
2023/12/25 08:25:33;;;;;;;4.37;1.60;;;;;;;;;;4956151;28;20222;-87
2023/12/25 08:28:03;;;;;;;5.20;1.70;;;;;;;;;;4927923;28;20225;-82
2023/12/25 08:30:29;;;;;;;6.73;1.67;;;;;;;;;;4957021;28;20857;-86
2023/12/25 08:32:59;;;;;;;6.77;2.27;;;;;;;;;;4944963;28;20274;-84
2023/12/25 08:35:24;;;;;;;5.67;1.90;;;;;;;;;;4959438;28;20241;-86
2023/12/25 08:37:50;;;;;;;3.60;1.67;;;;;;;;;;4961861;28;20222;-84
2023/12/25 08:40:15;;;;;;;5.07;2.00;;;;;;;;;;4965824;28;20223;-86
2023/12/25 08:42:41;;;;;;;6.43;2.00;;;;;;;;;;4962347;28;20325;-86
2023/12/25 08:45:07;;;;;;;6.27;1.90;;;;;;;;;;4956813;28;20214;-84
2023/12/25 08:47:35;;;;;;;3.40;2.07;;;;;;;;;;4939984;28;20230;-85
2023/12/25 08:50:01;;;;;;;6.97;1.77;;;;;;;;;;4942343;28;20218;-86
2023/12/25 08:52:26;;;;;;;5.57;2.27;;;;;;;;;;4955237;28;20306;-86
2023/12/25 08:54:52;;;;;;;4.80;1.90;;;;;;;;;;4937844;28;20241;-86
2023/12/25 08:57:17;;;;;;;6.50;2.40;;;;;;;;;;4952641;28;20222;-85
2023/12/25 08:59:49;;;;;;;6.37;2.10;;;;;;;;;;4921699;28;20226;-84
2023/12/25 09:02:16;;;;;;;6.83;1.80;;;;;;;;;;4933341;28;20237;-86
2023/12/25 09:04:41;;;;;;;5.07;1.97;;;;;;;;;;4939460;28;20222;-85
2023/12/25 09:07:12;;;;;;;4.17;1.53;;;;;;;;;;4958295;28;20277;-82
2023/12/25 09:09:40;;;;;;;3.73;1.43;;;;;;;;;;4968850;28;20300;-82
2023/12/25 09:12:06;;;;;;;3.47;1.67;;;;;;;;;;4959799;28;20691;-83
2023/12/25 09:14:31;;;;;;;5.73;2.10;;;;;;;;;;4969896;28;20254;-82
2023/12/25 09:16:57;;;;;;;6.37;2.03;;;;;;;;;;4958286;28;20262;-83
2023/12/25 09:19:22;;;;;;;9.23;1.70;;;;;;;;;;4944280;28;20230;-85
2023/12/25 09:21:55;;;;;;;5.13;1.80;;;;;;;;;;4954568;28;20262;-85
2023/12/25 09:24:22;;;;;;;4.13;1.80;;;;;;;;;;4958177;28;20238;-84
2023/12/25 09:26:47;;;;;;;6.40;1.93;;;;;;;;;;4961228;28;20237;-82
2023/12/25 09:29:13;;;;;;;4.20;1.90;;;;;;;;;;4974173;28;20219;-84
2023/12/25 09:31:38;;;;;;;10.53;2.50;;;;;;;;;;4957784;28;20239;-85
2023/12/25 09:34:04;;;;;;;7.67;2.20;;;;;;;;;;4953792;28;20223;-85
2023/12/25 09:36:29;;;;;;;6.63;2.07;;;;;;;;;;4967598;28;20230;-82
2023/12/25 09:38:55;;;;;;;6.93;2.17;;;;;;;;;;4946970;28;20217;-85
2023/12/25 09:41:23;;;;;;;3.53;1.80;;;;;;;;;;4929139;28;20219;-85
2023/12/25 09:43:48;;;;;;;7.37;2.03;;;;;;;;;;4954845;28;20258;-84
2023/12/25 09:46:14;;;;;;;7.17;1.83;;;;;;;;;;4953343;28;20222;-83
2023/12/25 09:48:42;;;;;;;6.63;2.00;;;;;;;;;;4957028;28;20297;-86
2023/12/25 09:51:08;;;;;;;6.43;1.90;;;;;;;;;;4960070;28;20259;-83
2023/12/25 09:53:34;;;;;;;6.50;1.97;;;;;;;;;;4957600;28;20226;-87
2023/12/25 09:56:00;;;;;;;6.30;2.13;;;;;;;;;;4955149;28;20637;-84
2023/12/25 09:58:26;;;;;;;5.93;1.90;;;;;;;;;;4944084;28;20232;-84
2023/12/25 10:00:53;;;;;;;8.70;2.73;;;;;;;;;;4957796;28;20384;-87
2023/12/25 10:03:23;;;;;;;10.80;4.07;;;;;;;;;;4942975;28;20678;-83
2023/12/25 10:05:49;;;;;;;5.10;2.10;;;;;;;;;;4954173;28;20210;-87
2023/12/25 10:08:27;;;;;;;5.10;2.10;;;;;;;;;;4954313;28;20214;-87
2023/12/25 10:10:55;;;;;;;5.50;1.90;;;;;;;;;;4975233;28;20340;-84
2023/12/25 10:13:25;;;;;;;4.00;1.83;;;;;;;;;;4939572;28;20222;-85
2023/12/25 10:15:53;;;;;;;7.57;2.57;;;;;;;;;;4959066;28;20233;-87
2023/12/25 10:18:19;;;;;;;4.60;2.10;;;;;;;;;;4947058;28;20210;-84
2023/12/25 10:21:00;;;;;;;4.37;1.93;;;;;;;;;;4956305;28;20226;-85
2023/12/25 10:23:53;;;;;;;5.50;2.37;;;;;;;;;;4969290;28;20227;-87
2023/12/25 10:26:30;;;;;;;8.20;1.80;;;;;;;;;;4957264;28;20723;-87
2023/12/25 10:29:10;;;;;;;6.00;2.40;;;;;;;;;;4936850;28;20217;-86
2023/12/25 10:31:39;;;;;;;9.87;2.97;;;;;;;;;;4957622;28;20266;-85
2023/12/25 10:34:29;;;;;;;6.97;2.60;;;;;;;;;;4947166;28;20725;-82
2023/12/25 10:37:27;;;;;;;9.07;2.30;;;;;;;;;;4972601;28;20222;-87
2023/12/25 10:39:53;;;;;;;5.60;1.93;;;;;;;;;;4958546;28;20237;-81
2023/12/25 10:42:18;;;;;;;11.47;2.33;;;;;;;;;;4946631;28;20747;-82
2023/12/25 10:44:47;;;;;;;6.43;3.73;;;;;;;;;;4955435;28;20666;-83
2023/12/25 10:47:15;;;;;;;7.13;5.20;;;;;;;;;;4928747;28;20226;-82
2023/12/25 10:49:41;;;;;;;9.43;5.30;;;;;;;;;;4972376;28;20221;-80
2023/12/25 10:52:11;;;;;;;11.73;4.90;;;;;;;;;;4939865;28;20230;-82
2023/12/25 10:54:37;;;;;;;22.17;11.47;;;;;;;;;;4952856;28;20238;-85
2023/12/25 10:57:03;;;;;;;13.07;8.23;;;;;;;;;;4938942;28;20573;-86
2023/12/25 10:59:33;;;;;;;9.43;5.17;;;;;;;;;;4951318;28;20248;-86
2023/12/25 11:02:03;;;;;;;12.93;5.83;;;;;;;;;;4939597;28;20234;-87
2023/12/25 11:04:31;;;;;;;12.27;7.23;;;;;;;;;;4935876;28;20227;-87
2023/12/25 11:06:56;;;;;;;9.07;5.33;;;;;;;;;;4956889;28;20234;-85
2023/12/25 11:09:26;;;;;;;8.17;3.20;;;;;;;;;;4971619;28;20634;-86
2023/12/25 11:11:52;;;;;;;5.50;2.37;;;;;;;;;;4971249;28;20246;-83
2023/12/25 11:14:18;;;;;;;4.93;2.30;;;;;;;;;;4954735;28;20734;-85
2023/12/25 11:16:43;;;;;;;7.67;2.30;;;;;;;;;;4958734;28;20230;-86
2023/12/25 11:19:12;;;;;;;7.93;2.40;;;;;;;;;;4936639;28;20214;-86
2023/12/25 11:21:40;;;;;;;6.33;2.60;;;;;;;;;;4953815;28;20241;-82
2023/12/25 11:24:06;;;;;;;7.97;2.33;;;;;;;;;;4974651;28;20225;-85
2023/12/25 11:26:37;;;;;;;7.40;2.33;;;;;;;;;;4942066;28;20233;-86
2023/12/25 11:29:06;;;;;;;4.37;1.90;;;;;;;;;;4938089;28;20245;-84
2023/12/25 11:31:44;;;;;;;8.47;1.90;;;;;;;;;;4926136;28;20256;-83
2023/12/25 11:34:20;;;;;;;3.83;1.37;;;;;;;;;;4939698;28;20237;-81
2023/12/25 11:36:49;;;;;;;4.17;1.87;;;;;;;;;;4969410;28;20664;-88
2023/12/25 11:39:15;;;;;;;7.37;2.17;;;;;;;;;;4980260;28;20954;-84
2023/12/25 11:41:43;;;;;;;9.03;2.63;;;;;;;;;;4957352;28;20234;-86
2023/12/25 11:44:08;;;;;;;5.27;2.10;;;;;;;;;;4969153;28;20214;-85
2023/12/25 11:46:37;;;;;;;5.60;2.07;;;;;;;;;;4982761;28;20273;-87
2023/12/25 11:49:05;;;;;;;8.17;2.20;;;;;;;;;;4961818;28;20229;-84
2023/12/25 11:51:31;;;;;;;7.33;2.37;;;;;;;;;;4944566;28;20260;-86
2023/12/25 11:53:57;;;;;;;5.03;2.07;;;;;;;;;;4959213;28;20258;-86
2023/12/25 11:56:25;;;;;;;7.30;2.27;;;;;;;;;;4969202;28;20237;-89
2023/12/25 11:58:59;;;;;;;8.43;2.07;;;;;;;;;;4961638;28;20233;-85
2023/12/25 12:01:24;;;;;;;7.33;2.40;;;;;;;;;;4974486;28;20666;-88
2023/12/25 12:03:53;;;;;;;6.70;3.87;;;;;;;;;;4966127;28;20233;-84
2023/12/25 12:06:21;;;;;;;8.00;4.47;;;;;;;;;;4960704;28;20933;-86
2023/12/25 12:08:48;;;;;;;11.53;5.53;;;;;;;;;;4942787;28;20234;-85
2023/12/25 12:11:17;;;;;;;7.00;3.67;;;;;;;;;;4960261;28;20223;-88
2023/12/25 12:13:45;;;;;;;6.53;2.63;;;;;;;;;;4957755;28;20281;-84
2023/12/25 12:16:12;;;;;;;10.13;5.33;;;;;;;;;;4951572;28;20593;-83
2023/12/25 12:18:43;;;;;;;18.07;10.33;;;;;;;;;;4959474;28;20238;-85
2023/12/25 12:21:14;;;;;;;10.37;4.60;;;;;;;;;;4945688;28;20294;-88
2023/12/25 12:23:40;;;;;;;6.83;3.93;;;;;;;;;;4963293;28;20226;-85
2023/12/25 12:26:17;;;;;;;6.10;2.80;;;;;;;;;;4951212;28;20576;-86
2023/12/25 12:28:45;;;;;;;5.93;2.20;;;;;;;;;;4955996;28;20214;-86
2023/12/25 12:31:13;;;;;;;7.93;2.93;;;;;;;;;;4955493;28;20301;-85
2023/12/25 12:33:42;;;;;;;5.30;2.30;;;;;;;;;;4961751;28;20318;-86
2023/12/25 12:36:10;;;;;;;6.10;2.47;;;;;;;;;;4961669;28;20222;-85
2023/12/25 12:38:39;;;;;;;7.63;1.73;;;;;;;;;;4962017;28;20708;-85
2023/12/25 12:41:08;;;;;;;6.30;2.10;;;;;;;;;;4971994;28;20230;-84
2023/12/25 12:43:38;;;;;;;4.73;2.10;;;;;;;;;;4958989;28;20237;-82
2023/12/25 12:46:16;;;;;;;5.93;2.27;;;;;;;;;;4964382;28;20231;-83
2023/12/25 12:48:45;;;;;;;7.27;1.67;;;;;;;;;;4971800;28;20239;-85
2023/12/25 12:51:13;;;;;;;4.13;1.70;;;;;;;;;;4952885;28;20230;-86
2023/12/25 12:53:41;;;;;;;7.33;2.03;;;;;;;;;;4956271;28;20234;-86
2023/12/25 12:56:15;;;;;;;4.53;2.37;;;;;;;;;;4953125;28;20883;-86
2023/12/25 12:58:41;;;;;;;5.53;2.53;;;;;;;;;;4957814;28;20324;-86
2023/12/25 13:01:07;;;;;;;7.03;2.10;;;;;;;;;;4962956;28;20218;-85
2023/12/25 13:03:32;;;;;;;8.10;2.63;;;;;;;;;;4936522;28;20222;-87
2023/12/25 13:06:01;;;;;;;7.30;2.20;;;;;;;;;;4961310;28;20285;-86
2023/12/25 13:08:32;;;;;;;3.47;1.80;;;;;;;;;;4959330;28;20613;-87
2023/12/25 13:11:02;;;;;;;8.77;2.20;;;;;;;;;;4959356;28;20234;-87
2023/12/25 13:13:33;;;;;;;6.37;2.03;;;;;;;;;;4926898;28;20234;-87
2023/12/25 13:16:01;;;;;;;8.50;2.20;;;;;;;;;;4957580;28;20235;-87
2023/12/25 13:18:26;;;;;;;5.13;1.83;;;;;;;;;;4952455;28;20226;-83
2023/12/25 13:20:52;;;;;;;7.07;2.47;;;;;;;;;;4959180;28;20287;-83
2023/12/25 13:23:17;;;;;;;4.50;1.57;;;;;;;;;;4944426;28;20229;-85
2023/12/25 13:25:45;;;;;;;6.33;2.20;;;;;;;;;;4950263;28;20478;-87
2023/12/25 13:28:11;;;;;;;3.40;1.53;;;;;;;;;;4952812;28;20218;-86
2023/12/25 13:30:37;;;;;;;6.80;2.03;;;;;;;;;;4935064;28;20293;-86
2023/12/25 13:33:02;;;;;;;6.77;1.77;;;;;;;;;;4954096;28;20219;-84
2023/12/25 13:35:28;;;;;;;4.67;1.80;;;;;;;;;;4949298;28;20243;-84
2023/12/25 13:37:56;;;;;;;4.93;1.67;;;;;;;;;;4957577;28;20245;-86
2023/12/25 13:40:22;;;;;;;4.83;2.50;;;;;;;;;;4954687;28;20602;-86
2023/12/25 13:42:50;;;;;;;4.97;1.97;;;;;;;;;;4957706;28;20718;-88
2023/12/25 13:45:17;;;;;;;4.23;1.90;;;;;;;;;;4976127;28;20248;-86
2023/12/25 13:47:49;;;;;;;8.50;2.77;;;;;;;;;;4954929;28;20244;-86
2023/12/25 13:50:14;;;;;;;6.47;2.57;;;;;;;;;;4956827;28;20223;-86
2023/12/25 13:52:42;;;;;;;5.50;2.50;;;;;;;;;;4961281;28;20912;-85
2023/12/25 13:55:14;;;;;;;2.70;1.60;;;;;;;;;;4953059;28;20242;-87
2023/12/25 13:57:42;;;;;;;4.77;2.10;;;;;;;;;;4964794;28;20222;-83
2023/12/25 14:00:12;;;;;;;4.53;2.23;;;;;;;;;;4952582;28;20239;-83
2023/12/25 14:02:38;;;;;;;4.33;2.13;;;;;;;;;;4955506;28;20306;-77
2023/12/25 14:05:04;;;;;;;5.47;1.90;;;;;;;;;;4950383;28;20301;-79
2023/12/25 14:07:32;;;;;;;3.57;1.80;;;;;;;;;;4968562;28;20238;-78
2023/12/25 14:09:59;;;;;;;7.27;2.50;;;;;;;;;;4946480;28;20735;-78
2023/12/25 14:12:25;;;;;;;5.80;1.97;;;;;;;;;;4967155;28;20226;-78
2023/12/25 14:14:50;;;;;;;4.93;2.23;;;;;;;;;;4960446;28;20253;-79
2023/12/25 14:17:19;;;;;;;6.00;2.10;;;;;;;;;;4934244;28;20230;-79
2023/12/25 14:19:46;;;;;;;8.43;2.37;;;;;;;;;;4975778;28;20247;-78
2023/12/25 14:22:12;;;;;;;9.40;2.37;;;;;;;;;;4963577;28;20245;-79
2023/12/25 14:24:38;;;;;;;5.83;2.10;;;;;;;;;;4948006;28;20225;-80
2023/12/25 14:27:08;;;;;;;8.63;2.30;;;;;;;;;;4955058;28;20223;-77
2023/12/25 14:29:37;;;;;;;8.07;2.13;;;;;;;;;;4963272;28;20230;-79
2023/12/25 14:32:05;;;;;;;7.07;2.03;;;;;;;;;;4954293;28;20427;-79
2023/12/25 14:34:34;;;;;;;5.03;2.17;;;;;;;;;;4949531;28;20234;-79
2023/12/25 14:37:02;;;;;;;5.33;2.13;;;;;;;;;;4975877;28;20234;-79
2023/12/25 14:39:28;;;;;;;7.60;2.10;;;;;;;;;;4936795;28;20242;-78
2023/12/25 14:41:58;;;;;;;6.63;2.37;;;;;;;;;;4946603;28;20245;-78
2023/12/25 14:44:24;;;;;;;6.27;2.20;;;;;;;;;;4959978;28;20276;-78
2023/12/25 14:46:49;;;;;;;8.67;1.83;;;;;;;;;;4932426;28;20226;-77
2023/12/25 14:49:17;;;;;;;8.13;2.53;;;;;;;;;;4966472;28;20230;-78